sensor_id;sensor_type;location;lat;lon;timestamp;P1;durP1;ratioP1;P2;durP2;ratioP2
17741;SDS011;8993;51.822;-2.268;2023-03-20T00:01:27;22.05;;;2.40;;
17741;SDS011;8993;51.822;-2.268;2023-03-20T00:06:29;16.05;;;1.99;;
17741;SDS011;8993;51.822;-2.268;2023-03-20T00:11:33;18.38;;;2.33;;
17741;SDS011;8993;51.822;-2.268;2023-03-20T00:16:38;19.83;;;2.42;;
17741;SDS011;8993;51.822;-2.268;2023-03-20T00:21:42;17.94;;;2.20;;
17741;SDS011;8993;51.822;-2.268;2023-03-20T00:26:47;18.28;;;2.41;;
17741;SDS011;8993;51.822;-2.268;2023-03-20T00:31:50;16.76;;;2.16;;
17741;SDS011;8993;51.822;-2.268;2023-03-20T00:36:54;18.56;;;2.58;;
17741;SDS011;8993;51.822;-2.268;2023-03-20T00:41:59;21.48;;;2.43;;
17741;SDS011;8993;51.822;-2.268;2023-03-20T00:47:03;18.45;;;2.34;;
17741;SDS011;8993;51.822;-2.268;2023-03-20T00:52:08;20.15;;;2.47;;
17741;SDS011;8993;51.822;-2.268;2023-03-20T00:57:11;17.83;;;2.77;;
17741;SDS011;8993;51.822;-2.268;2023-03-20T01:07:20;17.48;;;2.42;;
17741;SDS011;8993;51.822;-2.268;2023-03-20T01:12:24;18.41;;;2.50;;
17741;SDS011;8993;51.822;-2.268;2023-03-20T01:17:28;14.72;;;2.29;;
17741;SDS011;8993;51.822;-2.268;2023-03-20T01:22:32;19.88;;;2.47;;
17741;SDS011;8993;51.822;-2.268;2023-03-20T01:27:36;16.99;;;2.37;;
17741;SDS011;8993;51.822;-2.268;2023-03-20T01:32:40;17.53;;;2.37;;
17741;SDS011;8993;51.822;-2.268;2023-03-20T01:37:46;17.29;;;2.65;;
17741;SDS011;8993;51.822;-2.268;2023-03-20T01:42:50;17.03;;;2.29;;
17741;SDS011;8993;51.822;-2.268;2023-03-20T01:47:54;16.54;;;2.51;;
17741;SDS011;8993;51.822;-2.268;2023-03-20T01:53:01;16.70;;;2.56;;
17741;SDS011;8993;51.822;-2.268;2023-03-20T01:58:04;17.80;;;2.44;;
17741;SDS011;8993;51.822;-2.268;2023-03-20T02:03:07;17.84;;;2.24;;
17741;SDS011;8993;51.822;-2.268;2023-03-20T02:08:15;18.65;;;2.52;;
17741;SDS011;8993;51.822;-2.268;2023-03-20T02:13:15;15.30;;;2.03;;
17741;SDS011;8993;51.822;-2.268;2023-03-20T02:18:19;19.41;;;2.76;;
17741;SDS011;8993;51.822;-2.268;2023-03-20T02:23:39;16.56;;;2.36;;
17741;SDS011;8993;51.822;-2.268;2023-03-20T02:33:36;18.96;;;2.71;;
17741;SDS011;8993;51.822;-2.268;2023-03-20T02:38:41;16.57;;;2.74;;
17741;SDS011;8993;51.822;-2.268;2023-03-20T02:43:42;19.88;;;3.20;;
17741;SDS011;8993;51.822;-2.268;2023-03-20T02:48:46;17.96;;;2.57;;
17741;SDS011;8993;51.822;-2.268;2023-03-20T02:53:50;17.65;;;2.64;;
17741;SDS011;8993;51.822;-2.268;2023-03-20T02:58:55;17.95;;;2.98;;
17741;SDS011;8993;51.822;-2.268;2023-03-20T03:03:58;18.56;;;2.62;;
17741;SDS011;8993;51.822;-2.268;2023-03-20T03:09:02;17.35;;;2.64;;
17741;SDS011;8993;51.822;-2.268;2023-03-20T03:14:06;18.78;;;2.70;;
17741;SDS011;8993;51.822;-2.268;2023-03-20T03:19:11;17.74;;;2.42;;
17741;SDS011;8993;51.822;-2.268;2023-03-20T03:24:20;16.98;;;2.34;;
17741;SDS011;8993;51.822;-2.268;2023-03-20T03:29:17;14.74;;;2.08;;
17741;SDS011;8993;51.822;-2.268;2023-03-20T03:34:21;16.80;;;2.29;;
17741;SDS011;8993;51.822;-2.268;2023-03-20T03:39:26;16.76;;;2.35;;
17741;SDS011;8993;51.822;-2.268;2023-03-20T03:44:30;16.39;;;2.11;;
17741;SDS011;8993;51.822;-2.268;2023-03-20T03:49:34;18.08;;;2.36;;
17741;SDS011;8993;51.822;-2.268;2023-03-20T03:54:38;15.02;;;2.05;;
17741;SDS011;8993;51.822;-2.268;2023-03-20T03:59:42;16.31;;;1.99;;
17741;SDS011;8993;51.822;-2.268;2023-03-20T04:04:47;15.79;;;2.30;;
17741;SDS011;8993;51.822;-2.268;2023-03-20T04:09:49;16.04;;;2.11;;
17741;SDS011;8993;51.822;-2.268;2023-03-20T04:14:55;14.65;;;2.10;;
17741;SDS011;8993;51.822;-2.268;2023-03-20T04:20:00;16.88;;;2.03;;
17741;SDS011;8993;51.822;-2.268;2023-03-20T04:25:06;13.16;;;1.99;;
17741;SDS011;8993;51.822;-2.268;2023-03-20T04:30:09;14.94;;;1.96;;
17741;SDS011;8993;51.822;-2.268;2023-03-20T04:35:12;16.23;;;2.13;;
17741;SDS011;8993;51.822;-2.268;2023-03-20T04:40:16;17.04;;;1.92;;
17741;SDS011;8993;51.822;-2.268;2023-03-20T04:45:20;14.68;;;2.01;;
17741;SDS011;8993;51.822;-2.268;2023-03-20T04:50:23;15.19;;;1.82;;
17741;SDS011;8993;51.822;-2.268;2023-03-20T04:55:27;18.54;;;2.10;;
17741;SDS011;8993;51.822;-2.268;2023-03-20T05:00:32;17.97;;;2.06;;
17741;SDS011;8993;51.822;-2.268;2023-03-20T05:05:36;14.87;;;1.91;;
17741;SDS011;8993;51.822;-2.268;2023-03-20T05:10:39;18.00;;;2.51;;
17741;SDS011;8993;51.822;-2.268;2023-03-20T05:15:43;20.29;;;2.40;;
17741;SDS011;8993;51.822;-2.268;2023-03-20T05:20:47;17.18;;;2.27;;
17741;SDS011;8993;51.822;-2.268;2023-03-20T05:25:51;18.30;;;2.68;;
17741;SDS011;8993;51.822;-2.268;2023-03-20T05:30:55;18.24;;;2.59;;
17741;SDS011;8993;51.822;-2.268;2023-03-20T05:35:59;19.37;;;2.45;;
17741;SDS011;8993;51.822;-2.268;2023-03-20T05:41:04;18.28;;;2.74;;
17741;SDS011;8993;51.822;-2.268;2023-03-20T05:46:07;18.51;;;2.47;;
17741;SDS011;8993;51.822;-2.268;2023-03-20T05:51:13;15.95;;;2.48;;
17741;SDS011;8993;51.822;-2.268;2023-03-20T05:56:16;18.48;;;3.13;;
17741;SDS011;8993;51.822;-2.268;2023-03-20T06:01:21;16.40;;;2.86;;
17741;SDS011;8993;51.822;-2.268;2023-03-20T06:06:25;17.64;;;2.81;;
17741;SDS011;8993;51.822;-2.268;2023-03-20T06:11:30;16.34;;;3.15;;
17741;SDS011;8993;51.822;-2.268;2023-03-20T06:16:34;20.32;;;3.14;;
17741;SDS011;8993;51.822;-2.268;2023-03-20T06:21:38;14.98;;;3.18;;
17741;SDS011;8993;51.822;-2.268;2023-03-20T06:26:42;13.02;;;3.23;;
17741;SDS011;8993;51.822;-2.268;2023-03-20T06:31:47;10.89;;;3.15;;
17741;SDS011;8993;51.822;-2.268;2023-03-20T06:36:50;10.88;;;3.41;;
17741;SDS011;8993;51.822;-2.268;2023-03-20T06:41:55;14.60;;;3.72;;
17741;SDS011;8993;51.822;-2.268;2023-03-20T06:46:59;9.82;;;3.24;;
17741;SDS011;8993;51.822;-2.268;2023-03-20T06:52:04;13.29;;;3.79;;
17741;SDS011;8993;51.822;-2.268;2023-03-20T06:57:08;11.42;;;3.60;;
17741;SDS011;8993;51.822;-2.268;2023-03-20T07:02:17;10.33;;;3.71;;
17741;SDS011;8993;51.822;-2.268;2023-03-20T07:07:21;10.85;;;3.87;;
17741;SDS011;8993;51.822;-2.268;2023-03-20T07:12:25;11.02;;;3.67;;
17741;SDS011;8993;51.822;-2.268;2023-03-20T07:17:29;8.35;;;3.25;;
17741;SDS011;8993;51.822;-2.268;2023-03-20T07:22:33;10.52;;;3.59;;
17741;SDS011;8993;51.822;-2.268;2023-03-20T07:27:37;10.37;;;3.59;;
17741;SDS011;8993;51.822;-2.268;2023-03-20T07:32:45;10.54;;;4.72;;
17741;SDS011;8993;51.822;-2.268;2023-03-20T07:37:49;9.78;;;4.07;;
17741;SDS011;8993;51.822;-2.268;2023-03-20T07:42:53;10.91;;;4.00;;
17741;SDS011;8993;51.822;-2.268;2023-03-20T07:47:57;10.38;;;3.86;;
17741;SDS011;8993;51.822;-2.268;2023-03-20T07:53:01;9.77;;;3.74;;
17741;SDS011;8993;51.822;-2.268;2023-03-20T07:58:05;9.74;;;4.03;;
17741;SDS011;8993;51.822;-2.268;2023-03-20T08:03:14;7.98;;;3.72;;
17741;SDS011;8993;51.822;-2.268;2023-03-20T08:08:18;8.28;;;3.58;;
17741;SDS011;8993;51.822;-2.268;2023-03-20T08:13:26;9.74;;;3.47;;
17741;SDS011;8993;51.822;-2.268;2023-03-20T08:18:33;8.71;;;3.05;;
17741;SDS011;8993;51.822;-2.268;2023-03-20T08:23:36;6.03;;;2.51;;
17741;SDS011;8993;51.822;-2.268;2023-03-20T08:28:39;6.76;;;2.11;;
17741;SDS011;8993;51.822;-2.268;2023-03-20T08:33:48;6.71;;;2.16;;
17741;SDS011;8993;51.822;-2.268;2023-03-20T08:38:51;5.92;;;2.01;;
17741;SDS011;8993;51.822;-2.268;2023-03-20T08:43:57;6.51;;;2.04;;
17741;SDS011;8993;51.822;-2.268;2023-03-20T08:49:07;7.63;;;2.20;;
17741;SDS011;8993;51.822;-2.268;2023-03-20T08:54:10;6.01;;;2.29;;
17741;SDS011;8993;51.822;-2.268;2023-03-20T08:59:14;6.77;;;2.21;;
17741;SDS011;8993;51.822;-2.268;2023-03-20T09:04:18;6.48;;;2.09;;
17741;SDS011;8993;51.822;-2.268;2023-03-20T09:09:23;5.91;;;1.91;;
17741;SDS011;8993;51.822;-2.268;2023-03-20T09:14:27;5.72;;;2.10;;
17741;SDS011;8993;51.822;-2.268;2023-03-20T09:19:31;4.72;;;1.93;;
17741;SDS011;8993;51.822;-2.268;2023-03-20T09:24:35;4.30;;;2.08;;
17741;SDS011;8993;51.822;-2.268;2023-03-20T09:29:39;5.62;;;2.22;;
17741;SDS011;8993;51.822;-2.268;2023-03-20T09:34:46;6.23;;;2.46;;
17741;SDS011;8993;51.822;-2.268;2023-03-20T09:39:50;3.42;;;2.02;;
17741;SDS011;8993;51.822;-2.268;2023-03-20T09:44:56;2.55;;;1.25;;
17741;SDS011;8993;51.822;-2.268;2023-03-20T09:50:02;1.78;;;0.69;;
17741;SDS011;8993;51.822;-2.268;2023-03-20T09:55:04;1.50;;;0.63;;
17741;SDS011;8993;51.822;-2.268;2023-03-20T10:00:10;1.24;;;0.57;;
17741;SDS011;8993;51.822;-2.268;2023-03-20T10:05:13;1.44;;;0.51;;
17741;SDS011;8993;51.822;-2.268;2023-03-20T10:10:14;1.19;;;0.57;;
17741;SDS011;8993;51.822;-2.268;2023-03-20T10:15:19;1.46;;;0.47;;
17741;SDS011;8993;51.822;-2.268;2023-03-20T10:20:24;1.95;;;0.47;;
17741;SDS011;8993;51.822;-2.268;2023-03-20T10:25:30;0.86;;;0.38;;
17741;SDS011;8993;51.822;-2.268;2023-03-20T10:30:55;1.07;;;0.38;;
17741;SDS011;8993;51.822;-2.268;2023-03-20T10:35:35;1.37;;;0.43;;
17741;SDS011;8993;51.822;-2.268;2023-03-20T10:40:39;1.35;;;0.50;;
17741;SDS011;8993;51.822;-2.268;2023-03-20T10:50:49;1.04;;;0.41;;
17741;SDS011;8993;51.822;-2.268;2023-03-20T10:56:09;1.19;;;0.45;;
17741;SDS011;8993;51.822;-2.268;2023-03-20T11:16:20;1.37;;;0.60;;
17741;SDS011;8993;51.822;-2.268;2023-03-20T11:21:19;1.29;;;0.68;;
17741;SDS011;8993;51.822;-2.268;2023-03-20T11:26:19;1.03;;;0.65;;
17741;SDS011;8993;51.822;-2.268;2023-03-20T11:31:28;1.07;;;0.63;;
17741;SDS011;8993;51.822;-2.268;2023-03-20T11:36:30;1.35;;;0.54;;
17741;SDS011;8993;51.822;-2.268;2023-03-20T11:41:34;1.75;;;0.49;;
17741;SDS011;8993;51.822;-2.268;2023-03-20T11:46:37;1.56;;;0.45;;
17741;SDS011;8993;51.822;-2.268;2023-03-20T11:51:41;2.19;;;0.45;;
17741;SDS011;8993;51.822;-2.268;2023-03-20T11:56:50;1.32;;;0.61;;
17741;SDS011;8993;51.822;-2.268;2023-03-20T12:01:51;1.50;;;0.93;;
17741;SDS011;8993;51.822;-2.268;2023-03-20T12:06:55;3.02;;;1.19;;
17741;SDS011;8993;51.822;-2.268;2023-03-20T12:12:00;1.48;;;0.91;;
17741;SDS011;8993;51.822;-2.268;2023-03-20T12:17:09;2.07;;;1.04;;
17741;SDS011;8993;51.822;-2.268;2023-03-20T12:22:13;2.55;;;1.13;;
17741;SDS011;8993;51.822;-2.268;2023-03-20T12:27:17;2.21;;;1.14;;
17741;SDS011;8993;51.822;-2.268;2023-03-20T12:32:19;2.89;;;1.31;;
17741;SDS011;8993;51.822;-2.268;2023-03-20T12:37:21;2.08;;;0.95;;
17741;SDS011;8993;51.822;-2.268;2023-03-20T12:52:43;3.05;;;0.90;;
17741;SDS011;8993;51.822;-2.268;2023-03-20T13:02:49;2.43;;;0.83;;
17741;SDS011;8993;51.822;-2.268;2023-03-20T13:08:09;1.76;;;0.64;;
17741;SDS011;8993;51.822;-2.268;2023-03-20T13:13:03;2.35;;;0.52;;
17741;SDS011;8993;51.822;-2.268;2023-03-20T13:18:06;1.53;;;0.53;;
17741;SDS011;8993;51.822;-2.268;2023-03-20T13:23:11;1.65;;;0.53;;
17741;SDS011;8993;51.822;-2.268;2023-03-20T13:28:14;1.98;;;0.65;;
17741;SDS011;8993;51.822;-2.268;2023-03-20T13:33:21;1.69;;;0.58;;
17741;SDS011;8993;51.822;-2.268;2023-03-20T13:38:22;1.36;;;0.66;;
17741;SDS011;8993;51.822;-2.268;2023-03-20T13:43:26;1.43;;;0.77;;
17741;SDS011;8993;51.822;-2.268;2023-03-20T13:48:31;2.27;;;0.92;;
17741;SDS011;8993;51.822;-2.268;2023-03-20T13:53:37;1.44;;;0.77;;
17741;SDS011;8993;51.822;-2.268;2023-03-20T13:58:43;2.26;;;0.82;;
17741;SDS011;8993;51.822;-2.268;2023-03-20T14:03:43;1.56;;;0.87;;
17741;SDS011;8993;51.822;-2.268;2023-03-20T14:08:47;1.36;;;0.77;;
17741;SDS011;8993;51.822;-2.268;2023-03-20T14:13:52;1.84;;;0.71;;
17741;SDS011;8993;51.822;-2.268;2023-03-20T14:19:04;1.22;;;0.73;;
17741;SDS011;8993;51.822;-2.268;2023-03-20T14:24:02;1.78;;;0.87;;
17741;SDS011;8993;51.822;-2.268;2023-03-20T14:29:45;2.54;;;0.83;;
17741;SDS011;8993;51.822;-2.268;2023-03-20T14:34:14;2.37;;;1.10;;
17741;SDS011;8993;51.822;-2.268;2023-03-20T14:39:17;2.13;;;1.14;;
17741;SDS011;8993;51.822;-2.268;2023-03-20T14:44:25;3.47;;;1.18;;
17741;SDS011;8993;51.822;-2.268;2023-03-20T14:49:32;2.46;;;1.06;;
17741;SDS011;8993;51.822;-2.268;2023-03-20T14:54:30;1.62;;;0.96;;
17741;SDS011;8993;51.822;-2.268;2023-03-20T14:59:34;3.12;;;1.10;;
17741;SDS011;8993;51.822;-2.268;2023-03-20T15:04:39;1.83;;;0.98;;
17741;SDS011;8993;51.822;-2.268;2023-03-20T15:09:42;1.54;;;0.91;;
17741;SDS011;8993;51.822;-2.268;2023-03-20T15:14:49;1.94;;;0.86;;
17741;SDS011;8993;51.822;-2.268;2023-03-20T15:19:57;2.01;;;0.89;;
17741;SDS011;8993;51.822;-2.268;2023-03-20T15:24:55;1.56;;;0.89;;
17741;SDS011;8993;51.822;-2.268;2023-03-20T15:29:59;1.45;;;0.89;;
17741;SDS011;8993;51.822;-2.268;2023-03-20T15:35:03;2.26;;;1.13;;
17741;SDS011;8993;51.822;-2.268;2023-03-20T15:40:13;1.66;;;0.92;;
17741;SDS011;8993;51.822;-2.268;2023-03-20T15:45:20;1.65;;;0.88;;
17741;SDS011;8993;51.822;-2.268;2023-03-20T15:50:19;1.66;;;0.98;;
17741;SDS011;8993;51.822;-2.268;2023-03-20T15:55:23;1.72;;;1.06;;
17741;SDS011;8993;51.822;-2.268;2023-03-20T16:00:28;2.16;;;1.29;;
17741;SDS011;8993;51.822;-2.268;2023-03-20T16:05:31;1.71;;;1.08;;
17741;SDS011;8993;51.822;-2.268;2023-03-20T16:10:35;2.03;;;0.95;;
17741;SDS011;8993;51.822;-2.268;2023-03-20T16:15:40;6.58;;;3.99;;
17741;SDS011;8993;51.822;-2.268;2023-03-20T16:20:47;1.16;;;0.70;;
17741;SDS011;8993;51.822;-2.268;2023-03-20T16:25:50;1.38;;;0.51;;
17741;SDS011;8993;51.822;-2.268;2023-03-20T16:31:03;1.23;;;0.50;;
17741;SDS011;8993;51.822;-2.268;2023-03-20T16:36:01;1.60;;;0.60;;
17741;SDS011;8993;51.822;-2.268;2023-03-20T16:41:14;0.94;;;0.71;;
17741;SDS011;8993;51.822;-2.268;2023-03-20T16:46:26;1.38;;;0.91;;
17741;SDS011;8993;51.822;-2.268;2023-03-20T16:51:17;2.23;;;1.06;;
17741;SDS011;8993;51.822;-2.268;2023-03-20T16:56:23;2.65;;;0.99;;
17741;SDS011;8993;51.822;-2.268;2023-03-20T17:01:26;1.95;;;0.98;;
17741;SDS011;8993;51.822;-2.268;2023-03-20T17:06:32;2.12;;;0.99;;
17741;SDS011;8993;51.822;-2.268;2023-03-20T17:11:34;2.36;;;0.95;;
17741;SDS011;8993;51.822;-2.268;2023-03-20T17:16:37;2.68;;;1.11;;
17741;SDS011;8993;51.822;-2.268;2023-03-20T17:21:41;4.59;;;1.55;;
17741;SDS011;8993;51.822;-2.268;2023-03-20T17:26:47;2.64;;;1.39;;
17741;SDS011;8993;51.822;-2.268;2023-03-20T17:31:50;2.26;;;1.44;;
17741;SDS011;8993;51.822;-2.268;2023-03-20T17:36:54;2.77;;;1.61;;
17741;SDS011;8993;51.822;-2.268;2023-03-20T17:41:59;3.63;;;1.30;;
17741;SDS011;8993;51.822;-2.268;2023-03-20T17:47:02;3.34;;;1.07;;
17741;SDS011;8993;51.822;-2.268;2023-03-20T17:52:07;2.93;;;1.28;;
17741;SDS011;8993;51.822;-2.268;2023-03-20T17:57:12;4.72;;;1.48;;
17741;SDS011;8993;51.822;-2.268;2023-03-20T18:02:14;3.04;;;1.53;;
17741;SDS011;8993;51.822;-2.268;2023-03-20T18:07:19;4.47;;;1.79;;
17741;SDS011;8993;51.822;-2.268;2023-03-20T18:12:23;6.83;;;2.51;;
17741;SDS011;8993;51.822;-2.268;2023-03-20T18:17:27;6.01;;;2.12;;
17741;SDS011;8993;51.822;-2.268;2023-03-20T18:22:31;6.31;;;2.21;;
17741;SDS011;8993;51.822;-2.268;2023-03-20T18:27:35;6.70;;;2.50;;
17741;SDS011;8993;51.822;-2.268;2023-03-20T18:32:39;8.13;;;2.57;;
17741;SDS011;8993;51.822;-2.268;2023-03-20T18:37:44;6.94;;;2.59;;
17741;SDS011;8993;51.822;-2.268;2023-03-20T18:42:48;7.93;;;2.98;;
17741;SDS011;8993;51.822;-2.268;2023-03-20T18:47:52;9.26;;;3.35;;
17741;SDS011;8993;51.822;-2.268;2023-03-20T18:52:57;8.27;;;3.37;;
17741;SDS011;8993;51.822;-2.268;2023-03-20T18:58:00;9.72;;;3.34;;
17741;SDS011;8993;51.822;-2.268;2023-03-20T19:03:04;7.73;;;3.53;;
17741;SDS011;8993;51.822;-2.268;2023-03-20T19:08:09;8.41;;;3.38;;
17741;SDS011;8993;51.822;-2.268;2023-03-20T19:13:13;8.32;;;3.45;;
17741;SDS011;8993;51.822;-2.268;2023-03-20T19:18:17;7.14;;;3.66;;
17741;SDS011;8993;51.822;-2.268;2023-03-20T19:23:21;9.20;;;4.13;;
17741;SDS011;8993;51.822;-2.268;2023-03-20T19:28:26;9.94;;;4.65;;
17741;SDS011;8993;51.822;-2.268;2023-03-20T19:33:29;11.00;;;4.68;;
17741;SDS011;8993;51.822;-2.268;2023-03-20T19:38:34;16.89;;;5.71;;
17741;SDS011;8993;51.822;-2.268;2023-03-20T19:43:38;17.08;;;5.94;;
17741;SDS011;8993;51.822;-2.268;2023-03-20T19:48:42;17.31;;;5.99;;
17741;SDS011;8993;51.822;-2.268;2023-03-20T19:53:48;17.71;;;6.02;;
17741;SDS011;8993;51.822;-2.268;2023-03-20T19:58:51;16.53;;;6.00;;
17741;SDS011;8993;51.822;-2.268;2023-03-20T20:03:55;16.38;;;5.67;;
17741;SDS011;8993;51.822;-2.268;2023-03-20T20:09:00;13.62;;;5.20;;
17741;SDS011;8993;51.822;-2.268;2023-03-20T20:14:04;16.92;;;5.57;;
17741;SDS011;8993;51.822;-2.268;2023-03-20T20:19:08;16.73;;;5.64;;
17741;SDS011;8993;51.822;-2.268;2023-03-20T20:24:12;17.09;;;5.78;;
17741;SDS011;8993;51.822;-2.268;2023-03-20T20:29:16;18.56;;;6.00;;
17741;SDS011;8993;51.822;-2.268;2023-03-20T20:34:20;16.94;;;5.84;;
17741;SDS011;8993;51.822;-2.268;2023-03-20T20:39:24;17.15;;;5.66;;
17741;SDS011;8993;51.822;-2.268;2023-03-20T20:44:29;21.10;;;6.25;;
17741;SDS011;8993;51.822;-2.268;2023-03-20T20:49:33;17.67;;;5.40;;
17741;SDS011;8993;51.822;-2.268;2023-03-20T20:54:36;15.52;;;4.76;;
17741;SDS011;8993;51.822;-2.268;2023-03-20T20:59:40;15.48;;;3.99;;
17741;SDS011;8993;51.822;-2.268;2023-03-20T21:04:45;11.15;;;3.52;;
17741;SDS011;8993;51.822;-2.268;2023-03-20T21:09:49;10.73;;;2.86;;
17741;SDS011;8993;51.822;-2.268;2023-03-20T21:14:53;12.40;;;2.53;;
17741;SDS011;8993;51.822;-2.268;2023-03-20T21:19:57;12.82;;;2.92;;
17741;SDS011;8993;51.822;-2.268;2023-03-20T21:25:01;10.16;;;2.97;;
17741;SDS011;8993;51.822;-2.268;2023-03-20T21:30:06;12.38;;;3.08;;
17741;SDS011;8993;51.822;-2.268;2023-03-20T21:35:09;13.72;;;2.90;;
17741;SDS011;8993;51.822;-2.268;2023-03-20T21:40:13;10.04;;;2.37;;
17741;SDS011;8993;51.822;-2.268;2023-03-20T21:45:17;9.97;;;2.23;;
17741;SDS011;8993;51.822;-2.268;2023-03-20T21:50:21;9.80;;;2.05;;
17741;SDS011;8993;51.822;-2.268;2023-03-20T21:55:25;8.84;;;1.88;;
17741;SDS011;8993;51.822;-2.268;2023-03-20T22:00:29;11.31;;;1.83;;
17741;SDS011;8993;51.822;-2.268;2023-03-20T22:05:36;8.91;;;1.96;;
17741;SDS011;8993;51.822;-2.268;2023-03-20T22:10:37;7.32;;;1.52;;
17741;SDS011;8993;51.822;-2.268;2023-03-20T22:15:43;6.21;;;1.43;;
17741;SDS011;8993;51.822;-2.268;2023-03-20T22:20:53;5.54;;;1.31;;
17741;SDS011;8993;51.822;-2.268;2023-03-20T22:25:53;6.66;;;1.21;;
17741;SDS011;8993;51.822;-2.268;2023-03-20T22:30:56;5.87;;;1.06;;
17741;SDS011;8993;51.822;-2.268;2023-03-20T22:36:00;7.53;;;1.14;;
17741;SDS011;8993;51.822;-2.268;2023-03-20T22:41:05;7.47;;;1.16;;
17741;SDS011;8993;51.822;-2.268;2023-03-20T22:46:09;8.31;;;1.20;;
17741;SDS011;8993;51.822;-2.268;2023-03-20T22:51:13;8.03;;;1.38;;
17741;SDS011;8993;51.822;-2.268;2023-03-20T22:56:17;7.75;;;1.30;;
17741;SDS011;8993;51.822;-2.268;2023-03-20T23:01:21;7.61;;;1.34;;
17741;SDS011;8993;51.822;-2.268;2023-03-20T23:06:25;8.93;;;1.16;;
17741;SDS011;8993;51.822;-2.268;2023-03-20T23:11:29;5.52;;;1.04;;
17741;SDS011;8993;51.822;-2.268;2023-03-20T23:16:32;6.71;;;1.03;;
17741;SDS011;8993;51.822;-2.268;2023-03-20T23:21:37;7.55;;;1.13;;
17741;SDS011;8993;51.822;-2.268;2023-03-20T23:26:41;5.98;;;1.09;;
17741;SDS011;8993;51.822;-2.268;2023-03-20T23:31:45;8.10;;;1.16;;
17741;SDS011;8993;51.822;-2.268;2023-03-20T23:36:49;6.92;;;1.10;;
17741;SDS011;8993;51.822;-2.268;2023-03-20T23:41:53;7.25;;;1.28;;
17741;SDS011;8993;51.822;-2.268;2023-03-20T23:46:57;8.28;;;1.12;;
17741;SDS011;8993;51.822;-2.268;2023-03-20T23:52:01;6.12;;;1.14;;
17741;SDS011;8993;51.822;-2.268;2023-03-20T23:57:05;10.36;;;1.46;;
